Time;durP1;ratioP1;P1;durP2;ratioP2;P2;SDS_P1;SDS_P2;PMS_P1;PMS_P2;Temp;Humidity;BMP_temperature;BMP_pressure;BME280_temperature;BME280_humidity;BME280_pressure;Samples;Min_cycle;Max_cycle;Signal;HPM_P1;HPM_P2
2023/02/03 00:01:13;;;;;;;13.27;9.32;;;21.90;99.90;;;;;;5029382;28;20052;-49
2023/02/03 00:03:39;;;;;;;12.63;9.23;;;21.80;99.90;;;;;;5027852;28;20108;-49
2023/02/03 00:06:05;;;;;;;14.35;8.82;;;21.80;99.90;;;;;;5029227;28;20072;-49
2023/02/03 00:08:31;;;;;;;13.73;9.27;;;21.90;99.90;;;;;;5029569;28;20076;-48
2023/02/03 00:10:58;;;;;;;13.25;9.25;;;21.80;99.90;;;;;;5029453;28;20029;-49
2023/02/03 00:13:25;;;;;;;12.60;8.85;;;21.80;99.90;;;;;;5029883;28;20354;-49
2023/02/03 00:15:51;;;;;;;12.95;9.35;;;21.80;99.90;;;;;;5030087;28;20029;-49
2023/02/03 00:18:17;;;;;;;13.43;9.52;;;21.80;99.90;;;;;;5029077;28;20045;-49
2023/02/03 00:20:43;;;;;;;9.82;7.75;;;21.70;99.90;;;;;;5011953;28;20064;-49
2023/02/03 00:23:10;;;;;;;13.27;9.23;;;21.70;99.90;;;;;;5029348;28;20404;-48
2023/02/03 00:25:37;;;;;;;10.43;8.00;;;21.70;99.90;;;;;;5029457;28;20390;-48
2023/02/03 00:28:04;;;;;;;11.13;8.15;;;21.70;99.90;;;;;;5029636;28;20018;-47
2023/02/03 00:30:30;;;;;;;11.60;8.75;;;21.70;99.90;;;;;;5029053;28;20112;-48
2023/02/03 00:32:55;;;;;;;11.82;8.57;;;21.60;99.90;;;;;;5029356;28;20543;-48
2023/02/03 00:35:21;;;;;;;12.68;8.75;;;21.60;99.90;;;;;;5029069;28;20025;-49
2023/02/03 00:37:54;;;;;;;11.43;7.72;;;21.60;99.90;;;;;;5029199;28;20068;-47
2023/02/03 00:40:22;;;;;;;11.02;7.95;;;21.60;99.90;;;;;;5022264;28;20132;-47
2023/02/03 00:42:48;;;;;;;;;;;21.60;99.90;;;;;;5029544;28;20488;-47
2023/02/03 00:45:14;;;;;;;11.88;7.63;;;21.60;99.90;;;;;;5029728;28;19906;-47
2023/02/03 00:47:39;;;;;;;11.52;8.07;;;21.60;99.90;;;;;;5031823;28;20087;-47
2023/02/03 00:50:06;;;;;;;11.40;8.02;;;21.50;99.90;;;;;;5034159;28;20479;-47
2023/02/03 00:52:32;;;;;;;11.63;8.30;;;21.50;99.90;;;;;;5035113;28;20025;-46
2023/02/03 00:54:58;;;;;;;13.50;8.07;;;21.50;99.90;;;;;;5035553;28;20029;-46
2023/02/03 00:57:24;;;;;;;12.95;8.32;;;21.50;99.90;;;;;;5035195;28;20164;-48
2023/02/03 00:59:50;;;;;;;10.55;7.65;;;21.50;99.90;;;;;;5029656;23;20053;-53
2023/02/03 01:02:16;;;;;;;13.77;7.28;;;21.40;99.90;;;;;;5035322;28;20033;-51
2023/02/03 01:04:43;;;;;;;11.40;8.13;;;21.40;99.90;;;;;;5034908;28;20423;-51
2023/02/03 01:07:09;;;;;;;9.87;7.60;;;21.40;99.90;;;;;;5033519;28;20029;-51
2023/02/03 01:09:36;;;;;;;12.02;8.23;;;21.40;99.90;;;;;;5034782;28;20087;-51
2023/02/03 01:12:02;;;;;;;11.77;8.70;;;21.40;99.90;;;;;;5016758;28;20117;-52
2023/02/03 01:14:29;;;;;;;11.20;7.60;;;21.40;99.90;;;;;;5033813;28;20078;-52
2023/02/03 01:16:54;;;;;;;10.80;8.40;;;21.30;99.90;;;;;;5033916;28;20041;-52
2023/02/03 01:19:20;;;;;;;10.93;7.90;;;21.30;99.90;;;;;;5034518;28;20021;-51
2023/02/03 01:21:46;;;;;;;11.82;7.85;;;21.30;99.90;;;;;;5034155;28;20014;-52
2023/02/03 01:24:13;;;;;;;10.88;7.80;;;21.30;99.90;;;;;;5033503;28;20354;-54
2023/02/03 01:26:40;;;;;;;12.02;8.73;;;21.30;99.90;;;;;;5034664;28;20109;-52
2023/02/03 01:29:06;;;;;;;11.40;7.95;;;21.30;99.90;;;;;;5034453;28;20116;-52
2023/02/03 01:31:38;;;;;;;13.77;7.22;;;21.30;99.90;;;;;;5033945;28;20037;-52
2023/02/03 01:34:06;;;;;;;10.70;7.60;;;21.20;99.90;;;;;;5034015;28;20029;-51
2023/02/03 01:36:33;;;;;;;15.20;7.75;;;21.20;99.90;;;;;;5034483;28;20036;-51
2023/02/03 01:39:00;;;;;;;10.82;7.53;;;21.20;99.90;;;;;;5034391;28;20112;-50
2023/02/03 01:41:28;;;;;;;11.50;7.70;;;21.20;99.90;;;;;;5033423;28;20032;-53
2023/02/03 01:43:56;;;;;;;11.48;8.38;;;21.20;99.90;;;;;;5033208;28;20018;-53
2023/02/03 01:46:37;;;;;;;11.23;8.32;;;21.20;99.90;;;;;;5033052;28;20022;-53
2023/02/03 01:49:16;;;;;;;10.93;7.43;;;21.20;99.90;;;;;;5034737;28;20056;-52
2023/02/03 01:51:44;;;;;;;11.63;7.60;;;21.20;99.90;;;;;;5034602;28;20068;-52
2023/02/03 01:54:15;;;;;;;9.27;7.05;;;21.20;99.90;;;;;;5034511;28;20017;-52
2023/02/03 01:56:46;;;;;;;11.80;7.20;;;21.20;99.90;;;;;;5034496;28;20053;-52
2023/02/03 02:01:41;;;;;;;11.23;7.82;;;21.10;99.90;;;;;;5091875;28;19920;-47
2023/02/03 02:04:08;;;;;;;14.05;7.72;;;21.10;99.90;;;;;;5094717;28;20437;-48
2023/02/03 02:06:34;;;;;;;13.75;7.47;;;21.10;99.90;;;;;;5094511;28;20030;-48
2023/02/03 02:09:00;;;;;;;14.40;8.27;;;21.10;99.90;;;;;;5093143;28;20024;-48
2023/02/03 02:11:27;;;;;;;12.30;8.02;;;21.10;99.90;;;;;;5093267;28;20109;-48
2023/02/03 02:13:56;;;;;;;11.43;7.83;;;21.00;99.90;;;;;;5094388;28;20099;-48
2023/02/03 02:16:48;;;;;;;10.02;6.53;;;21.00;99.90;;;;;;5094466;28;20024;-47
2023/02/03 02:19:57;;;;;;;10.80;7.10;;;21.00;99.90;;;;;;5094414;28;20020;-48
2023/02/03 02:22:47;;;;;;;11.18;7.70;;;21.00;99.90;;;;;;5094348;28;20103;-48
2023/02/03 02:25:16;;;;;;;12.10;8.15;;;21.00;99.90;;;;;;5094262;28;20099;-47
2023/02/03 02:28:00;;;;;;;13.52;7.85;;;21.00;99.90;;;;;;5094108;28;20028;-48
2023/02/03 02:30:35;;;;;;;11.52;7.15;;;20.90;99.90;;;;;;5094065;28;20371;-48
2023/02/03 02:33:19;;;;;;;8.35;6.45;;;20.90;99.90;;;;;;5093831;28;20424;-48
2023/02/03 02:35:48;;;;;;;14.50;7.28;;;20.90;99.90;;;;;;5094091;28;20463;-48
2023/02/03 02:38:37;;;;;;;11.75;7.40;;;20.80;99.90;;;;;;5093892;28;20389;-47
2023/02/03 02:41:34;;;;;;;10.18;7.55;;;20.80;99.90;;;;;;5093884;28;20122;-48
2023/02/03 02:44:06;;;;;;;13.73;7.55;;;20.80;99.90;;;;;;5093974;28;20021;-48
2023/02/03 02:46:42;;;;;;;10.70;7.30;;;20.80;99.90;;;;;;5093767;28;20496;-48
2023/02/03 02:49:29;;;;;;;12.10;7.40;;;20.80;99.90;;;;;;5093886;28;20020;-48
2023/02/03 02:51:58;;;;;;;9.95;6.85;;;20.80;99.90;;;;;;5093689;28;20071;-48
2023/02/03 02:54:28;;;;;;;10.27;7.30;;;20.80;99.90;;;;;;5093637;28;20496;-48
2023/02/03 02:56:58;;;;;;;13.35;7.80;;;20.80;99.90;;;;;;5093642;28;20016;-48
2023/02/03 02:59:24;;;;;;;10.95;6.75;;;20.70;99.90;;;;;;5103027;22;20028;-54
2023/02/03 03:01:50;;;;;;;9.23;6.80;;;20.70;99.90;;;;;;5033316;28;20040;-54
2023/02/03 03:04:21;;;;;;;9.73;6.85;;;20.70;99.90;;;;;;5033276;28;20013;-53
2023/02/03 03:06:52;;;;;;;9.80;6.90;;;20.70;99.90;;;;;;5033450;28;20431;-50
2023/02/03 03:09:34;;;;;;;12.73;8.20;;;20.70;99.90;;;;;;5031858;28;20048;-51
2023/02/03 03:12:08;;;;;;;14.45;7.53;;;20.70;99.90;;;;;;5031866;28;20033;-51
2023/02/03 03:14:37;;;;;;;11.05;7.95;;;20.60;99.90;;;;;;5033077;28;20034;-50
2023/02/03 03:17:07;;;;;;;11.45;7.55;;;20.60;99.90;;;;;;5033174;28;20393;-51
2023/02/03 03:19:48;;;;;;;11.43;7.18;;;20.70;99.90;;;;;;5031924;28;20469;-51
2023/02/03 03:22:16;;;;;;;11.98;7.60;;;20.60;99.90;;;;;;5033077;28;20442;-51
2023/02/03 03:24:53;;;;;;;12.10;7.90;;;20.60;99.90;;;;;;5033093;28;20116;-51
2023/02/03 03:27:25;;;;;;;10.35;8.18;;;20.60;99.90;;;;;;5031537;28;20485;-52
2023/02/03 03:30:05;;;;;;;9.70;7.90;;;20.50;99.90;;;;;;5015418;28;20105;-52
2023/02/03 03:32:31;;;;;;;11.32;7.80;;;20.60;99.90;;;;;;5032705;28;20558;-51
2023/02/03 03:34:59;;;;;;;11.70;7.72;;;20.50;99.90;;;;;;5032722;28;20022;-53
2023/02/03 03:37:44;;;;;;;10.07;7.05;;;20.50;99.90;;;;;;5032723;28;20116;-51
2023/02/03 03:40:25;;;;;;;13.68;7.97;;;20.50;99.90;;;;;;5032818;28;20041;-51
2023/02/03 03:42:57;;;;;;;10.32;7.22;;;20.50;99.90;;;;;;5032713;28;20021;-51
2023/02/03 03:45:31;;;;;;;11.02;8.05;;;20.50;99.90;;;;;;5031202;28;20120;-49
2023/02/03 03:48:02;;;;;;;12.95;8.25;;;20.50;99.90;;;;;;5032511;28;20032;-50
2023/02/03 03:50:31;;;;;;;12.38;7.65;;;20.40;99.90;;;;;;5032351;28;20021;-53
2023/02/03 03:53:00;;;;;;;21.17;8.02;;;20.40;99.90;;;;;;5032456;28;20092;-52
2023/02/03 03:55:30;;;;;;;13.13;8.70;;;20.40;99.90;;;;;;5015263;28;20063;-52
2023/02/03 03:58:06;;;;;;;11.32;7.65;;;20.40;99.90;;;;;;5032312;28;20026;-52
2023/02/03 04:00:35;;;;;;;11.13;7.43;;;20.40;99.90;;;;;;5031598;28;20069;-52
2023/02/03 04:03:07;;;;;;;11.77;7.47;;;20.40;99.90;;;;;;5032419;28;20032;-53
2023/02/03 04:05:34;;;;;;;12.02;7.82;;;20.40;99.90;;;;;;5031024;28;20481;-52
2023/02/03 04:08:01;;;;;;;11.05;7.15;;;20.40;99.90;;;;;;5032206;28;20466;-52
2023/02/03 04:10:38;;;;;;;9.77;7.20;;;20.30;99.90;;;;;;5031060;28;20469;-53
2023/02/03 04:13:05;;;;;;;9.93;6.90;;;20.30;99.90;;;;;;5032174;28;20038;-52
2023/02/03 04:15:32;;;;;;;12.70;7.70;;;20.30;99.90;;;;;;5032305;28;20032;-52
2023/02/03 04:18:00;;;;;;;9.50;6.95;;;20.30;99.90;;;;;;5032125;28;20029;-52
2023/02/03 04:20:26;;;;;;;;;;;20.30;99.90;;;;;;5031384;28;20025;-52
2023/02/03 04:22:52;;;;;;;10.93;6.78;;;20.30;99.90;;;;;;5035282;28;20023;-53
2023/02/03 04:25:18;;;;;;;9.85;6.68;;;20.30;99.90;;;;;;5036308;28;20026;-52
2023/02/03 04:27:44;;;;;;;10.68;7.05;;;20.30;99.90;;;;;;5036493;28;20025;-53
2023/02/03 04:30:11;;;;;;;11.10;7.70;;;20.20;99.90;;;;;;5036235;28;20047;-51
2023/02/03 04:32:37;;;;;;;8.40;5.97;;;20.20;99.90;;;;;;5036001;28;20042;-53
2023/02/03 04:35:04;;;;;;;9.73;6.57;;;20.20;99.90;;;;;;5036130;28;20026;-53
2023/02/03 04:37:30;;;;;;;10.27;6.88;;;20.20;99.90;;;;;;5035988;28;20029;-53
2023/02/03 04:39:57;;;;;;;10.13;6.38;;;20.20;99.90;;;;;;5035977;28;20029;-52
2023/02/03 04:42:23;;;;;;;9.18;6.43;;;20.20;99.90;;;;;;5035985;28;20029;-52
2023/02/03 04:44:49;;;;;;;11.90;7.10;;;20.20;99.90;;;;;;5035905;28;20025;-50
2023/02/03 04:47:16;;;;;;;9.85;7.22;;;20.20;99.90;;;;;;5034858;28;20075;-50
2023/02/03 04:49:42;;;;;;;11.20;6.70;;;20.10;99.90;;;;;;5035781;28;20025;-50
2023/02/03 04:52:08;;;;;;;10.63;6.88;;;20.10;99.90;;;;;;5034371;28;20374;-50
2023/02/03 04:54:34;;;;;;;9.82;6.20;;;20.10;99.90;;;;;;5035656;28;20033;-50
2023/02/03 04:57:00;;;;;;;8.93;6.05;;;20.10;99.90;;;;;;5035761;28;20034;-51
2023/02/03 04:59:26;;;;;;;10.98;6.40;;;20.10;99.90;;;;;;5036254;28;20021;-51
2023/02/03 05:01:52;;;;;;;9.05;6.60;;;20.10;99.90;;;;;;5036058;28;20025;-50
2023/02/03 05:04:17;;;;;;;9.50;6.07;;;20.10;99.90;;;;;;5035739;28;20537;-50
2023/02/03 05:06:43;;;;;;;8.57;6.05;;;20.10;99.90;;;;;;5035463;28;20370;-50
2023/02/03 05:09:09;;;;;;;8.68;5.63;;;20.10;99.90;;;;;;5035473;28;20072;-50
2023/02/03 05:11:35;;;;;;;8.32;6.00;;;20.00;99.90;;;;;;5034459;28;20029;-52
2023/02/03 05:14:01;;;;;;;8.93;5.82;;;20.00;99.90;;;;;;5035459;28;20026;-51
2023/02/03 05:16:27;;;;;;;9.65;5.60;;;20.00;99.90;;;;;;5035345;28;20409;-51
2023/02/03 05:18:52;;;;;;;7.97;5.90;;;20.00;99.90;;;;;;5035477;28;20029;-52
2023/02/03 05:21:18;;;;;;;8.63;6.15;;;20.00;99.90;;;;;;5035278;28;20026;-50
2023/02/03 05:23:44;;;;;;;8.20;5.60;;;20.00;99.90;;;;;;5035150;28;20103;-50
2023/02/03 05:26:10;;;;;;;8.13;5.60;;;20.00;99.90;;;;;;5033820;28;20216;-50
2023/02/03 05:28:35;;;;;;;9.43;5.80;;;20.00;99.90;;;;;;5035060;28;20021;-50
2023/02/03 05:31:02;;;;;;;6.70;4.80;;;19.90;99.90;;;;;;5035081;28;20025;-49
2023/02/03 05:33:29;;;;;;;7.80;5.30;;;19.90;99.90;;;;;;5033523;28;20033;-49
2023/02/03 05:35:55;;;;;;;9.13;5.95;;;20.00;99.90;;;;;;5034765;28;20489;-49
2023/02/03 05:38:21;;;;;;;8.43;5.88;;;20.00;99.90;;;;;;5034007;28;20532;-50
2023/02/03 05:43:32;;;;;;;6.90;5.28;;;19.90;99.90;;;;;;5035092;28;20048;-51
2023/02/03 05:46:03;;;;;;;8.35;5.85;;;19.90;99.90;;;;;;5034842;28;20105;-51
2023/02/03 05:48:29;;;;;;;9.18;5.68;;;19.90;99.90;;;;;;5034743;28;20104;-51
2023/02/03 05:50:54;;;;;;;9.25;6.35;;;19.90;99.90;;;;;;5034656;28;20028;-51
2023/02/03 05:53:20;;;;;;;9.77;6.43;;;19.90;99.90;;;;;;5034889;28;20041;-51
2023/02/03 05:55:46;;;;;;;9.13;6.13;;;19.90;99.90;;;;;;5034744;28;20025;-52
2023/02/03 05:58:12;;;;;;;10.00;6.20;;;19.90;99.90;;;;;;5034540;28;20029;-52
2023/02/03 06:00:38;;;;;;;9.32;5.88;;;19.90;99.90;;;;;;5034368;28;20037;-52
2023/02/03 06:03:04;;;;;;;9.43;5.35;;;19.90;99.90;;;;;;5034335;28;20030;-53
2023/02/03 06:05:32;;;;;;;8.18;6.28;;;19.90;99.90;;;;;;5034434;28;20144;-51
2023/02/03 06:07:59;;;;;;;9.10;5.88;;;19.90;99.90;;;;;;5034445;28;20022;-51
2023/02/03 06:10:25;;;;;;;7.32;5.28;;;19.90;99.90;;;;;;5034245;28;20362;-51
2023/02/03 06:12:51;;;;;;;11.13;5.97;;;19.80;99.90;;;;;;5034480;28;20045;-52
2023/02/03 06:15:17;;;;;;;7.63;4.63;;;19.80;99.90;;;;;;5034107;28;20032;-51
2023/02/03 06:17:45;;;;;;;8.90;5.45;;;19.80;99.90;;;;;;5034231;28;20036;-50
2023/02/03 06:20:13;;;;;;;8.40;5.22;;;19.80;99.90;;;;;;5034162;28;20026;-51
2023/02/03 06:22:38;;;;;;;9.05;5.32;;;19.80;99.90;;;;;;5033914;28;20132;-49
2023/02/03 06:25:05;;;;;;;9.10;5.53;;;19.80;99.90;;;;;;5033994;28;20109;-50
2023/02/03 06:27:31;;;;;;;9.82;4.88;;;19.80;99.90;;;;;;5033977;28;20029;-50
2023/02/03 06:29:56;;;;;;;9.38;5.38;;;19.80;99.90;;;;;;5033904;28;20075;-53
2023/02/03 06:32:22;;;;;;;7.90;5.00;;;19.80;99.90;;;;;;5033899;28;20034;-51
2023/02/03 06:34:48;;;;;;;9.95;5.10;;;19.70;99.90;;;;;;5033847;28;20074;-53
2023/02/03 06:37:14;;;;;;;8.30;4.85;;;19.80;99.90;;;;;;5033735;28;20033;-54
2023/02/03 06:39:39;;;;;;;8.25;5.47;;;19.70;99.90;;;;;;5033748;28;20029;-52
2023/02/03 06:42:06;;;;;;;8.07;5.10;;;19.70;99.90;;;;;;5033651;28;20021;-52
2023/02/03 06:44:32;;;;;;;9.25;5.03;;;19.70;99.90;;;;;;5033256;28;20032;-52
2023/02/03 06:46:58;;;;;;;12.98;5.13;;;19.70;99.90;;;;;;5033556;28;20025;-51
2023/02/03 06:49:24;;;;;;;8.23;5.30;;;19.70;99.90;;;;;;5034006;28;20033;-53
2023/02/03 06:51:51;;;;;;;9.55;5.07;;;19.70;99.90;;;;;;5033634;28;20030;-53
2023/02/03 06:54:17;;;;;;;14.67;8.27;;;19.70;99.90;;;;;;5033476;28;20544;-53
2023/02/03 06:56:43;;;;;;;10.15;6.10;;;19.70;99.90;;;;;;5033371;28;20480;-52
2023/02/03 06:59:09;;;;;;;12.88;6.35;;;19.70;99.90;;;;;;5033328;28;20053;-52
2023/02/03 07:01:36;;;;;;;18.13;7.28;;;19.70;99.90;;;;;;5031831;28;20084;-54
2023/02/03 07:04:02;;;;;;;11.15;6.97;;;19.70;99.90;;;;;;5033270;28;20017;-53
2023/02/03 07:06:30;;;;;;;13.75;8.75;;;19.70;99.90;;;;;;5033193;28;20104;-54
2023/02/03 07:09:00;;;;;;;14.73;8.65;;;19.70;99.90;;;;;;5033158;28;20018;-53
2023/02/03 07:11:26;;;;;;;14.55;9.00;;;19.60;99.90;;;;;;5033057;28;20528;-53
2023/02/03 07:13:52;;;;;;;15.10;9.80;;;19.60;99.90;;;;;;5033264;28;20025;-52
2023/02/03 07:16:18;;;;;;;16.00;10.77;;;19.60;99.90;;;;;;5032999;28;20018;-53
2023/02/03 07:18:44;;;;;;;16.13;10.90;;;19.70;99.90;;;;;;5032899;28;20108;-52
2023/02/03 07:21:11;;;;;;;15.95;10.95;;;19.60;99.90;;;;;;5032866;28;20473;-53
2023/02/03 07:23:37;;;;;;;16.90;10.70;;;19.60;99.90;;;;;;5032896;28;20446;-54
2023/02/03 07:26:04;;;;;;;18.65;12.27;;;19.60;99.90;;;;;;5032797;28;20057;-53
2023/02/03 07:28:32;;;;;;;14.60;10.57;;;19.60;99.90;;;;;;5032602;28;20021;-53
2023/02/03 07:30:58;;;;;;;18.17;11.88;;;19.60;99.90;;;;;;5032912;28;20025;-53
2023/02/03 07:33:24;;;;;;;18.23;10.80;;;19.60;99.90;;;;;;5033043;28;20095;-52
2023/02/03 07:35:53;;;;;;;18.52;11.20;;;19.60;99.90;;;;;;5032767;28;20017;-53
2023/02/03 07:38:20;;;;;;;17.00;10.65;;;19.60;99.90;;;;;;5032696;28;20026;-53
2023/02/03 07:40:46;;;;;;;14.98;10.38;;;19.60;99.90;;;;;;5032640;28;20021;-53
2023/02/03 07:43:11;;;;;;;17.17;11.65;;;19.60;99.90;;;;;;5015030;28;20449;-54
2023/02/03 07:45:37;;;;;;;18.83;11.30;;;19.60;99.90;;;;;;5014966;28;20529;-54
2023/02/03 07:48:03;;;;;;;15.60;10.93;;;19.60;99.90;;;;;;5032543;28;20381;-53
2023/02/03 07:50:29;;;;;;;15.80;10.70;;;19.60;99.90;;;;;;5032585;28;20358;-54
2023/02/03 07:52:55;;;;;;;15.73;10.85;;;19.60;99.90;;;;;;5032435;28;20060;-53
2023/02/03 07:55:23;;;;;;;22.92;11.80;;;19.60;99.90;;;;;;5032398;28;20459;-53
2023/02/03 07:57:49;;;;;;;14.77;10.50;;;19.60;99.90;;;;;;5031740;28;20108;-52
2023/02/03 08:00:15;;;;;;;16.17;10.95;;;19.60;99.90;;;;;;5032135;28;20507;-52
2023/02/03 08:02:42;;;;;;;16.73;10.70;;;19.60;99.90;;;;;;5032407;28;20029;-52
2023/02/03 08:05:10;;;;;;;14.25;10.35;;;19.70;99.90;;;;;;5032353;28;20021;-54
2023/02/03 08:07:36;;;;;;;15.88;9.90;;;19.60;99.90;;;;;;5032264;28;20033;-54
2023/02/03 08:10:02;;;;;;;16.75;10.70;;;19.60;99.90;;;;;;5032189;28;20021;-54
2023/02/03 08:12:28;;;;;;;12.68;8.63;;;19.70;99.90;;;;;;5032491;28;20460;-55
2023/02/03 08:14:54;;;;;;;13.68;9.82;;;19.70;99.90;;;;;;5032470;28;20048;-54
2023/02/03 08:17:19;;;;;;;12.40;8.95;;;19.70;99.90;;;;;;5032213;28;20121;-54
2023/02/03 08:19:45;;;;;;;12.63;8.50;;;19.70;99.90;;;;;;5032071;28;20017;-53
2023/02/03 08:22:14;;;;;;;13.82;9.15;;;19.70;99.90;;;;;;5030718;28;20033;-55
2023/02/03 08:24:45;;;;;;;12.32;8.80;;;19.80;99.90;;;;;;5031893;28;20466;-54
2023/02/03 08:27:15;;;;;;;11.93;8.48;;;19.80;99.90;;;;;;5032101;28;20417;-55
2023/02/03 08:29:42;;;;;;;12.82;8.75;;;19.80;99.90;;;;;;5031995;28;20517;-55
2023/02/03 08:32:09;;;;;;;13.50;8.98;;;19.80;99.90;;;;;;5031785;28;20025;-53
2023/02/03 08:34:35;;;;;;;14.10;9.48;;;19.80;99.90;;;;;;5032051;28;20041;-57
2023/02/03 08:37:01;;;;;;;11.30;8.13;;;19.80;99.90;;;;;;5031845;28;20026;-54
2023/02/03 08:39:27;;;;;;;12.13;8.52;;;19.90;99.90;;;;;;5032128;28;20155;-54
2023/02/03 08:41:53;;;;;;;12.95;9.20;;;19.90;99.90;;;;;;5031936;28;20427;-55
2023/02/03 08:44:18;;;;;;;11.40;7.82;;;19.90;99.90;;;;;;5031882;28;20025;-53
2023/02/03 08:46:51;;;;;;;12.27;7.63;;;19.90;99.90;;;;;;5031930;28;20505;-53
2023/02/03 08:49:19;;;;;;;12.60;8.10;;;19.90;99.90;;;;;;5031734;28;20079;-53
2023/02/03 08:51:46;;;;;;;12.70;8.82;;;19.90;99.90;;;;;;5031765;28;20506;-53
2023/02/03 08:54:12;;;;;;;14.90;8.20;;;19.90;99.90;;;;;;5031809;28;20030;-53
2023/02/03 08:56:39;;;;;;;16.75;7.88;;;20.00;99.90;;;;;;5031694;28;20036;-52
2023/02/03 08:59:05;;;;;;;11.57;7.95;;;20.00;99.90;;;;;;5031759;28;20416;-53
2023/02/03 09:01:31;;;;;;;10.95;7.32;;;20.00;99.90;;;;;;5031625;28;20417;-53
2023/02/03 09:03:57;;;;;;;13.48;8.02;;;20.00;99.90;;;;;;5014103;28;20030;-53
2023/02/03 09:06:23;;;;;;;9.88;7.35;;;20.00;99.90;;;;;;5031737;28;20096;-53
2023/02/03 09:08:49;;;;;;;10.50;7.60;;;20.00;99.90;;;;;;5034428;28;20021;-54
2023/02/03 09:11:17;;;;;;;12.88;7.20;;;20.10;99.90;;;;;;5035219;28;20041;-53
2023/02/03 09:13:44;;;;;;;15.18;7.47;;;20.10;99.90;;;;;;5035305;28;20053;-53
2023/02/03 09:16:12;;;;;;;11.27;7.10;;;20.10;99.90;;;;;;5034807;28;20025;-53
2023/02/03 09:18:38;;;;;;;10.73;6.72;;;20.10;99.90;;;;;;5035135;28;20432;-53
2023/02/03 09:21:07;;;;;;;10.60;6.78;;;20.10;99.90;;;;;;5035205;28;20025;-53
2023/02/03 09:23:33;;;;;;;11.13;6.40;;;20.10;99.90;;;;;;5035286;28;20014;-53
2023/02/03 09:26:06;;;;;;;13.57;7.32;;;20.20;99.90;;;;;;5035407;28;20025;-53
2023/02/03 09:28:33;;;;;;;9.90;6.88;;;20.20;99.90;;;;;;5033721;28;20021;-53
2023/02/03 09:31:05;;;;;;;11.18;6.63;;;20.20;99.90;;;;;;5035252;28;20025;-54
2023/02/03 09:33:30;;;;;;;11.35;6.70;;;20.20;99.90;;;;;;5034667;28;20485;-54
2023/02/03 09:35:57;;;;;;;9.32;6.25;;;20.30;99.90;;;;;;5034399;28;20032;-54
2023/02/03 09:38:24;;;;;;;10.00;6.18;;;20.30;99.90;;;;;;5034428;28;20032;-54
2023/02/03 09:41:19;;;;;;;11.48;6.63;;;20.30;99.90;;;;;;5031642;28;20025;-54
2023/02/03 09:44:06;;;;;;;10.02;6.15;;;20.40;99.90;;;;;;5031620;28;20513;-52
2023/02/03 09:46:38;;;;;;;11.40;6.57;;;20.40;99.90;;;;;;5031997;28;20255;-52
2023/02/03 09:49:16;;;;;;;9.15;6.60;;;20.40;99.90;;;;;;5033697;28;20389;-53
2023/02/03 09:52:09;;;;;;;10.85;6.50;;;20.40;99.90;;;;;;5032815;28;20029;-53
2023/02/03 09:54:43;;;;;;;8.18;5.50;;;20.50;99.90;;;;;;5031633;28;20029;-53
2023/02/03 09:57:30;;;;;;;8.65;5.70;;;20.50;99.90;;;;;;5033691;28;20112;-54
2023/02/03 10:00:00;;;;;;;12.10;6.45;;;20.50;99.90;;;;;;5025860;28;20041;-52
2023/02/03 10:02:32;;;;;;;8.50;5.38;;;20.50;99.90;;;;;;5031110;28;20025;-54
2023/02/03 10:05:06;;;;;;;8.65;5.90;;;20.60;99.90;;;;;;5030822;28;20116;-53
2023/02/03 10:07:55;;;;;;;12.35;6.80;;;20.60;99.90;;;;;;5031647;28;20033;-54
2023/02/03 10:10:48;;;;;;;10.27;5.90;;;20.60;99.90;;;;;;5031012;28;20013;-54
2023/02/03 10:13:33;;;;;;;9.75;5.43;;;20.70;99.90;;;;;;5020808;28;20053;-53
2023/02/03 10:16:34;;;;;;;8.40;5.20;;;20.70;99.90;;;;;;5030760;28;20045;-53
2023/02/03 10:19:06;;;;;;;8.63;5.35;;;20.80;99.90;;;;;;4959235;28;20039;-53
2023/02/03 10:21:46;;;;;;;7.82;5.63;;;20.80;99.90;;;;;;5019313;28;20064;-54
2023/02/03 10:24:39;;;;;;;8.40;6.20;;;20.80;99.90;;;;;;5031041;28;20022;-53
2023/02/03 10:27:14;;;;;;;7.40;5.72;;;20.90;99.90;;;;;;5030289;28;20026;-54
2023/02/03 10:29:41;;;;;;;8.85;5.68;;;21.00;99.90;;;;;;5030195;28;20040;-54
2023/02/03 10:32:12;;;;;;;8.35;5.65;;;21.00;99.90;;;;;;5029863;28;20033;-56
2023/02/03 10:34:38;;;;;;;9.00;5.07;;;21.10;99.90;;;;;;5031726;28;20033;-56
2023/02/03 10:37:28;;;;;;;9.60;5.68;;;21.10;99.90;;;;;;5031135;28;20022;-54
2023/02/03 10:39:55;;;;;;;8.77;5.95;;;21.20;99.90;;;;;;5031313;28;20025;-55
2023/02/03 10:42:22;;;;;;;8.52;5.47;;;21.20;99.90;;;;;;5031414;28;20026;-55
2023/02/03 10:44:58;;;;;;;9.15;5.45;;;21.20;99.90;;;;;;5031437;28;20072;-54
2023/02/03 10:47:33;;;;;;;14.13;6.35;;;21.30;99.90;;;;;;5031092;28;20223;-56
2023/02/03 10:50:07;;;;;;;11.25;5.47;;;21.30;99.90;;;;;;5031906;28;20022;-52
2023/02/03 10:52:34;;;;;;;11.27;5.22;;;21.40;99.90;;;;;;5032791;28;20029;-57
2023/02/03 10:55:21;;;;;;;13.88;5.22;;;21.40;99.90;;;;;;5032057;28;20469;-55
2023/02/03 10:57:48;;;;;;;13.43;5.07;;;21.50;99.90;;;;;;5019502;28;20048;-57
2023/02/03 11:00:28;;;;;;;11.93;5.22;;;21.60;99.90;;;;;;5033011;28;20042;-56
2023/02/03 11:03:07;;;;;;;12.07;6.35;;;21.60;99.90;;;;;;5032835;28;20053;-55
2023/02/03 11:05:33;;;;;;;7.90;5.28;;;21.60;99.90;;;;;;5033380;28;20071;-59
2023/02/03 11:08:00;;;;;;;7.93;5.10;;;21.70;99.90;;;;;;5032643;28;20024;-60
2023/02/03 11:10:38;;;;;;;8.70;4.88;;;21.70;99.90;;;;;;5033141;28;20033;-60
2023/02/03 11:13:21;;;;;;;11.15;5.30;;;21.70;99.90;;;;;;5033160;28;20048;-61
2023/02/03 11:15:49;;;;;;;7.10;4.95;;;21.80;99.90;;;;;;5033038;28;20434;-60
2023/02/03 11:18:50;;;;;;;8.00;4.75;;;21.80;99.90;;;;;;5032953;28;20139;-58
2023/02/03 11:21:20;;;;;;;9.30;5.22;;;21.80;99.90;;;;;;5032918;28;20551;-60
2023/02/03 11:24:00;;;;;;;10.18;5.45;;;21.90;99.90;;;;;;5032984;28;20392;-60
2023/02/03 11:26:34;;;;;;;8.35;5.20;;;21.90;99.90;;;;;;5032835;28;20017;-60
2023/02/03 11:29:02;;;;;;;9.60;4.13;;;21.90;99.90;;;;;;5015121;28;20100;-60
2023/02/03 11:31:31;;;;;;;10.30;5.28;;;22.00;99.90;;;;;;5032726;28;20075;-60
2023/02/03 11:34:13;;;;;;;9.23;4.45;;;22.00;99.90;;;;;;5032635;28;20037;-61
2023/02/03 11:36:38;;;;;;;7.00;5.07;;;22.00;99.90;;;;;;5032600;28;20029;-60
2023/02/03 11:39:36;;;;;;;10.80;4.68;;;22.10;99.90;;;;;;5032703;28;20029;-61
2023/02/03 11:42:02;;;;;;;;;;;22.10;99.90;;;;;;5033062;28;20030;-60
2023/02/03 11:44:32;;;;;;;10.25;4.95;;;22.20;99.90;;;;;;5032264;28;19923;-62
2023/02/03 11:47:03;;;;;;;7.80;5.07;;;22.10;99.90;;;;;;5029796;28;20018;-60
2023/02/03 11:50:03;;;;;;;11.07;4.70;;;22.20;99.90;;;;;;5031872;28;20040;-60
2023/02/03 11:52:53;;;;;;;10.00;4.82;;;22.20;99.90;;;;;;5047456;28;20026;-60
2023/02/03 11:55:21;;;;;;;12.38;5.47;;;22.20;99.90;;;;;;5032306;28;20529;-59
2023/02/03 11:58:06;;;;;;;10.15;4.63;;;22.30;99.90;;;;;;5032107;28;20079;-58
2023/02/03 12:00:43;;;;;;;7.97;3.85;;;22.30;99.90;;;;;;5031747;28;20047;-48
2023/02/03 12:03:50;;;;;;;10.60;4.97;;;22.30;99.90;;;;;;5031750;28;20021;-57
2023/02/03 12:06:42;;;;;;;12.23;4.45;;;22.40;99.90;;;;;;4913624;29;20048;-58
2023/02/03 12:09:21;;;;;;;10.73;4.53;;;22.40;99.90;;;;;;5025400;28;20454;-58
2023/02/03 12:11:59;;;;;;;9.20;4.85;;;22.50;99.90;;;;;;5028250;28;20037;-59
2023/02/03 12:14:46;;;;;;;7.57;4.30;;;22.50;99.90;;;;;;5029477;28;20025;-60
2023/02/03 12:17:46;;;;;;;8.38;4.40;;;22.50;99.90;;;;;;5029710;28;20100;-59
2023/02/03 12:20:35;;;;;;;7.43;4.15;;;22.60;99.90;;;;;;5029045;28;20025;-59
2023/02/03 12:23:04;;;;;;;9.65;4.70;;;22.70;99.90;;;;;;5029564;28;20045;-60
2023/02/03 12:25:44;;;;;;;5.75;4.10;;;22.70;99.90;;;;;;5029247;28;20083;-62
2023/02/03 12:28:34;;;;;;;6.60;4.28;;;22.70;99.90;;;;;;5028573;28;20025;-61
2023/02/03 12:31:12;;;;;;;10.40;4.85;;;22.80;99.90;;;;;;5029419;28;20421;-60
2023/02/03 12:33:51;;;;;;;8.77;5.30;;;22.80;99.90;;;;;;5029443;28;20040;-60
2023/02/03 12:36:23;;;;;;;7.53;4.80;;;22.80;99.90;;;;;;5029291;28;20446;-60
2023/02/03 12:38:51;;;;;;;11.68;4.97;;;22.90;99.90;;;;;;5029523;28;20022;-59
2023/02/03 12:41:35;;;;;;;8.85;5.10;;;22.90;99.90;;;;;;5026287;28;20049;-58
2023/02/03 12:44:12;;;;;;;8.00;4.70;;;22.90;99.90;;;;;;5034169;28;20104;-57
2023/02/03 12:47:23;;;;;;;8.32;4.20;;;22.90;99.90;;;;;;5035081;28;20351;-60
2023/02/03 12:49:55;;;;;;;6.10;4.43;;;23.00;99.90;;;;;;5034885;28;20080;-58
2023/02/03 12:52:50;;;;;;;11.15;3.78;;;23.00;99.90;;;;;;5035168;28;20103;-57
2023/02/03 12:55:41;;;;;;;6.88;4.15;;;23.00;99.90;;;;;;5035599;28;20037;-55
2023/02/03 12:58:24;;;;;;;8.85;4.85;;;23.00;99.90;;;;;;5035844;28;20026;-59
2023/02/03 13:01:07;;;;;;;7.05;4.13;;;23.10;99.90;;;;;;5035550;28;20044;-58
2023/02/03 13:03:54;;;;;;;8.02;4.68;;;23.10;99.90;;;;;;5035399;28;20469;-57
2023/02/03 13:06:31;;;;;;;6.60;4.05;;;23.10;99.90;;;;;;5035588;28;20048;-59